createdAt,value
2023-05-10T00:00:44.172Z,100997.53
2023-05-10T00:03:10.911Z,101004.47
2023-05-10T00:05:37.524Z,100998.69
2023-05-10T00:08:04.176Z,100994.44
2023-05-10T00:10:30.640Z,101004.41
2023-05-10T00:12:57.164Z,101000.91
2023-05-10T00:15:23.685Z,100999.09
2023-05-10T00:17:50.454Z,101000.81
2023-05-10T00:20:17.308Z,100998.19
2023-05-10T00:22:44.223Z,101004.25
2023-05-10T00:25:11.502Z,101006.03
2023-05-10T00:27:37.964Z,100997.22
2023-05-10T00:30:04.969Z,101010.09
2023-05-10T00:32:31.587Z,101001.28
2023-05-10T00:34:58.103Z,101004.84
2023-05-10T00:37:24.651Z,101005.66
2023-05-10T00:39:51.158Z,101007.34
2023-05-10T00:42:17.670Z,101009.88
2023-05-10T00:44:44.142Z,101003.78
2023-05-10T00:47:11.858Z,100994.25
2023-05-10T00:49:38.579Z,101004.59
2023-05-10T00:52:05.488Z,101000.41
2023-05-10T00:54:32.043Z,101008.97
2023-05-10T00:56:59.759Z,101013.34
2023-05-10T00:59:26.456Z,101012.50
2023-05-10T01:01:53.098Z,101019.44
2023-05-10T01:04:22.675Z,101019.44
2023-05-10T01:06:49.237Z,101019.44
2023-05-10T01:09:15.948Z,101015.91
2023-05-10T01:11:42.748Z,101016.88
2023-05-10T01:14:09.534Z,101018.53
2023-05-10T01:16:39.398Z,101022.03
2023-05-10T01:19:27.509Z,101022.88
2023-05-10T01:22:05.441Z,101028.13
2023-05-10T01:24:53.382Z,101026.38
2023-05-10T01:27:46.177Z,101017.72
2023-05-10T01:30:41.674Z,101027.22
2023-05-10T01:33:14.214Z,101030.84
2023-05-10T01:36:07.908Z,101028.28
2023-05-10T01:38:41.615Z,101033.50
2023-05-10T01:41:18.625Z,101033.50
2023-05-10T01:44:19.717Z,101035.22
2023-05-10T01:46:57.944Z,101035.22
2023-05-10T01:49:27.664Z,101029.97
2023-05-10T01:52:00.250Z,101035.13
2023-05-10T01:54:29.877Z,101042.97
2023-05-10T01:57:01.039Z,101041.19
2023-05-10T01:59:31.797Z,101041.19
2023-05-10T02:02:00.244Z,101030.03
2023-05-10T02:04:28.001Z,101053.38
2023-05-10T02:06:56.434Z,101043.78
2023-05-10T02:09:24.445Z,101047.34
2023-05-10T02:11:51.574Z,101047.28
2023-05-10T02:14:19.896Z,101056.03
2023-05-10T02:16:47.913Z,101051.66
2023-05-10T02:19:15.323Z,101052.50
2023-05-10T02:21:42.648Z,101042.16
2023-05-10T02:24:10.376Z,101050.91
2023-05-10T02:26:37.348Z,101053.56
2023-05-10T02:29:06.055Z,101056.19
2023-05-10T02:31:34.558Z,101060.53
2023-05-10T02:34:02.473Z,101058.94
2023-05-10T02:36:30.120Z,101058.94
2023-05-10T02:38:58.429Z,101060.75
2023-05-10T02:41:27.274Z,101056.53
2023-05-10T02:43:58.230Z,101070.31
2023-05-10T02:46:25.271Z,101069.50
2023-05-10T02:48:51.877Z,101066.88
2023-05-10T02:51:20.696Z,101074.69
2023-05-10T02:53:50.152Z,101053.97
2023-05-10T02:56:26.006Z,101056.59
2023-05-10T02:58:53.491Z,101063.50
2023-05-10T03:01:20.043Z,101079.09
2023-05-10T03:03:46.804Z,101080.06
2023-05-10T03:06:13.525Z,101080.09
2023-05-10T03:08:40.131Z,101086.31
2023-05-10T03:11:38.257Z,101075.88
2023-05-10T03:14:25.874Z,101085.56
2023-05-10T03:17:01.255Z,101082.22
2023-05-10T03:19:34.041Z,101086.63
2023-05-10T03:22:06.231Z,101092.81
2023-05-10T03:24:36.291Z,101081.78
2023-05-10T03:27:05.306Z,101090.44
2023-05-10T03:29:32.897Z,101097.44
2023-05-10T03:32:00.593Z,101090.66
2023-05-10T03:34:27.340Z,101090.59
2023-05-10T03:36:53.846Z,101089.78
2023-05-10T03:39:22.206Z,101089.00
2023-05-10T03:41:48.716Z,101099.50
2023-05-10T03:44:15.188Z,101094.50
2023-05-10T03:46:41.680Z,101092.78
2023-05-10T03:49:08.189Z,101108.56
2023-05-10T03:51:34.993Z,101107.00
2023-05-10T03:54:01.571Z,101122.75
2023-05-10T03:56:28.074Z,101119.34
2023-05-10T03:58:54.538Z,101124.59
2023-05-10T04:01:21.063Z,101119.06
2023-05-10T04:03:47.722Z,101127.44
2023-05-10T04:06:14.350Z,101125.91
2023-05-10T04:08:40.953Z,101126.84
2023-05-10T04:11:12.433Z,101125.16
2023-05-10T04:13:39.253Z,101133.97
2023-05-10T04:16:06.278Z,101128.88
2023-05-10T04:18:32.948Z,101131.50
2023-05-10T04:20:59.409Z,101128.13
2023-05-10T04:23:25.909Z,101126.41
2023-05-10T04:25:52.700Z,101132.56
2023-05-10T04:28:19.330Z,101132.56
2023-05-10T04:30:46.203Z,101140.44
2023-05-10T04:33:12.832Z,101136.16
2023-05-10T04:35:40.931Z,101138.00
2023-05-10T04:38:07.432Z,101133.75
2023-05-10T04:40:34.003Z,101151.84
2023-05-10T04:43:00.508Z,101136.34
2023-05-10T04:45:27.034Z,101151.41
2023-05-10T04:47:53.526Z,101160.69
2023-05-10T04:50:20.039Z,101157.19
2023-05-10T04:52:46.533Z,101154.78
2023-05-10T04:55:13.009Z,101159.00
2023-05-10T04:57:39.642Z,101148.06
2023-05-10T05:00:06.794Z,101161.09
2023-05-10T05:02:33.353Z,101165.47
2023-05-10T05:05:00.096Z,101164.69
2023-05-10T05:07:26.823Z,101168.09
2023-05-10T05:09:53.305Z,101171.50
2023-05-10T05:12:19.779Z,101164.75
2023-05-10T05:14:46.275Z,101171.56
2023-05-10T05:17:12.778Z,101181.84
2023-05-10T05:19:39.332Z,101185.31
2023-05-10T05:22:07.716Z,101183.53
2023-05-10T05:24:39.104Z,101194.69
2023-05-10T05:27:06.677Z,101181.34
2023-05-10T05:29:33.476Z,101194.00
2023-05-10T05:32:00.202Z,101188.28
2023-05-10T05:34:27.004Z,101194.03
2023-05-10T05:36:53.556Z,101188.44
2023-05-10T05:39:20.284Z,101171.97
2023-05-10T05:41:47.362Z,101200.13
2023-05-10T05:44:13.827Z,101200.00
2023-05-10T05:46:40.349Z,101197.31
2023-05-10T05:49:06.859Z,101207.56
2023-05-10T05:51:33.344Z,101209.97
2023-05-10T05:54:00.006Z,101204.66
2023-05-10T05:56:26.559Z,101198.38
2023-05-10T05:58:53.020Z,101209.38
2023-05-10T06:01:19.637Z,101213.59
2023-05-10T06:03:46.172Z,101214.41
2023-05-10T06:06:13.566Z,101216.03
2023-05-10T06:08:40.046Z,101222.00
2023-05-10T06:11:06.531Z,101213.25
2023-05-10T06:13:33.420Z,101217.59
2023-05-10T06:16:00.311Z,101202.22
2023-05-10T06:18:27.488Z,101209.47
2023-05-10T06:20:53.995Z,101224.31
2023-05-10T06:23:20.466Z,101222.50
2023-05-10T06:25:46.997Z,101220.66
2023-05-10T06:28:13.446Z,101227.59
2023-05-10T06:30:39.967Z,101227.53
2023-05-10T06:33:06.970Z,101220.59
2023-05-10T06:35:34.511Z,101236.94
2023-05-10T06:38:01.019Z,101242.78
2023-05-10T06:40:27.708Z,101232.09
2023-05-10T06:42:54.212Z,101231.88
2023-05-10T06:45:21.018Z,101243.06
2023-05-10T06:47:47.790Z,101232.22
2023-05-10T06:50:14.408Z,101239.72
2023-05-10T06:52:41.012Z,101232.13
2023-05-10T06:55:08.051Z,101247.00
2023-05-10T06:57:34.630Z,101246.94
2023-05-10T07:00:01.241Z,101252.28
2023-05-10T07:02:28.241Z,101242.88
2023-05-10T07:04:55.169Z,101240.41
2023-05-10T07:07:22.104Z,101248.97
2023-05-10T07:09:48.594Z,101241.28
2023-05-10T07:12:15.990Z,101251.53
2023-05-10T07:14:43.113Z,101254.09
2023-05-10T07:17:10.327Z,101250.53
2023-05-10T07:19:36.958Z,101241.53
2023-05-10T07:22:03.578Z,101249.88
2023-05-10T07:24:30.838Z,101258.28
2023-05-10T07:26:57.371Z,101266.50
2023-05-10T07:29:24.000Z,101273.63
2023-05-10T07:31:50.533Z,101278.97
2023-05-10T07:34:17.073Z,101275.34
2023-05-10T07:36:44.768Z,101270.81
2023-05-10T07:39:12.732Z,101275.53
2023-05-10T07:41:42.748Z,101282.25
2023-05-10T07:44:09.256Z,101277.53
2023-05-10T07:46:35.740Z,101274.00
2023-05-10T07:49:02.192Z,101256.56
2023-05-10T07:51:29.581Z,101268.69
2023-05-10T07:53:56.243Z,101273.09
2023-05-10T07:56:30.786Z,101287.78
2023-05-10T07:58:57.637Z,101271.50
2023-05-10T08:01:25.260Z,101291.22
2023-05-10T08:03:52.569Z,101285.75
2023-05-10T08:06:20.560Z,101285.94
2023-05-10T08:08:50.400Z,101284.22
2023-05-10T08:11:18.410Z,101281.44
2023-05-10T08:13:46.239Z,101282.03
2023-05-10T08:16:12.875Z,101273.63
2023-05-10T08:18:40.522Z,101277.03
2023-05-10T08:21:08.367Z,101285.44
2023-05-10T08:23:34.903Z,101285.13
2023-05-10T08:26:01.505Z,101295.25
2023-05-10T08:28:28.224Z,101289.44
2023-05-10T08:30:54.935Z,101295.25
2023-05-10T08:33:21.538Z,101291.19
2023-05-10T08:35:48.062Z,101289.41
2023-05-10T08:38:14.531Z,101293.91
2023-05-10T08:40:45.430Z,101298.34
2023-05-10T08:43:14.013Z,101295.53
2023-05-10T08:45:43.385Z,101299.25
2023-05-10T08:48:11.337Z,101287.19
2023-05-10T08:50:39.103Z,101300.94
2023-05-10T08:53:10.232Z,101277.81
2023-05-10T08:55:39.384Z,101298.00
2023-05-10T08:58:06.522Z,101296.19
2023-05-10T09:00:34.289Z,101292.09
2023-05-10T09:03:01.746Z,101287.34
2023-05-10T09:05:28.580Z,101288.56
2023-05-10T09:07:55.239Z,101290.81
2023-05-10T09:10:22.727Z,101297.91
2023-05-10T09:12:49.923Z,101296.53
2023-05-10T09:15:20.198Z,101300.09
2023-05-10T09:17:48.220Z,101297.28
2023-05-10T09:20:14.853Z,101297.03
2023-05-10T09:22:41.732Z,101292.22
2023-05-10T09:25:10.597Z,101305.00
2023-05-10T09:27:38.065Z,101300.13
2023-05-10T09:30:06.239Z,101293.97
2023-05-10T09:32:45.231Z,101295.16
2023-05-10T09:35:17.005Z,101296.16
2023-05-10T09:37:47.129Z,101293.13
2023-05-10T09:40:18.478Z,101289.63
2023-05-10T09:43:07.055Z,101291.34
2023-05-10T09:45:37.786Z,101289.56
2023-05-10T09:48:05.757Z,101291.22
2023-05-10T09:50:32.471Z,101288.34
2023-05-10T09:53:00.969Z,101294.34
2023-05-10T09:55:41.030Z,101291.94
2023-05-10T09:58:11.503Z,101295.84
2023-05-10T10:00:40.076Z,101300.50
2023-05-10T10:03:07.740Z,101279.03
2023-05-10T10:05:36.877Z,101293.19
2023-05-10T10:08:05.435Z,101289.81
2023-05-10T10:10:33.277Z,101273.97
2023-05-10T10:13:00.672Z,101278.44
2023-05-10T10:15:27.204Z,101281.53
2023-05-10T10:17:54.921Z,101288.53
2023-05-10T10:20:26.114Z,101278.38
2023-05-10T10:22:53.515Z,101282.19
2023-05-10T10:25:24.169Z,101271.50
2023-05-10T10:27:53.483Z,101286.88
2023-05-10T10:30:42.650Z,101271.16
2023-05-10T10:33:31.130Z,101289.09
2023-05-10T10:36:03.648Z,101270.41
2023-05-10T10:39:00.239Z,101275.66
2023-05-10T10:41:32.216Z,101264.31
2023-05-10T10:44:35.477Z,101276.06
2023-05-10T10:47:11.257Z,101284.31
2023-05-10T10:49:40.895Z,101277.22
2023-05-10T10:52:31.099Z,101283.00
2023-05-10T10:55:01.425Z,101275.56
2023-05-10T10:57:31.067Z,101251.88
2023-05-10T11:00:19.489Z,101269.00
2023-05-10T11:02:49.158Z,101261.97
2023-05-10T11:05:33.927Z,101265.44
2023-05-10T11:08:01.683Z,101254.94
2023-05-10T11:10:28.459Z,101258.78
2023-05-10T11:13:05.234Z,101243.88
2023-05-10T11:15:33.665Z,101239.81
2023-05-10T11:18:01.081Z,101256.75
2023-05-10T11:20:40.018Z,101250.38
2023-05-10T11:23:16.605Z,101249.22
2023-05-10T11:25:45.207Z,101253.38
2023-05-10T11:28:13.060Z,101249.94
2023-05-10T11:30:42.242Z,101248.94
2023-05-10T11:33:09.620Z,101255.34
2023-05-10T11:35:43.132Z,101248.09
2023-05-10T11:38:22.579Z,101251.19
2023-05-10T11:40:55.492Z,101258.44
2023-05-10T11:43:25.065Z,101254.19
2023-05-10T11:45:53.913Z,101246.28
2023-05-10T11:48:24.716Z,101248.06
2023-05-10T11:50:51.509Z,101251.78
2023-05-10T11:53:18.171Z,101256.00
2023-05-10T11:55:44.999Z,101247.75
2023-05-10T11:58:11.517Z,101244.81
2023-05-10T12:00:40.078Z,101244.56
2023-05-10T12:03:09.700Z,101254.28
2023-05-10T12:05:37.058Z,101258.16
2023-05-10T12:08:16.994Z,101259.00
2023-05-10T12:10:43.531Z,101253.72
2023-05-10T12:13:15.225Z,101247.63
2023-05-10T12:15:44.776Z,101247.84
2023-05-10T12:18:12.709Z,101239.63
2023-05-10T12:20:39.867Z,101235.38
2023-05-10T12:23:07.139Z,101253.72
2023-05-10T12:25:35.693Z,101254.81
2023-05-10T12:28:06.540Z,101248.94
2023-05-10T12:30:34.709Z,101239.66
2023-05-10T12:33:16.094Z,101247.56
2023-05-10T12:35:47.163Z,101245.31
2023-05-10T12:38:27.207Z,101244.63
2023-05-10T12:40:53.724Z,101255.06
2023-05-10T12:43:20.381Z,101241.09
2023-05-10T12:45:49.047Z,101256.22
2023-05-10T12:48:18.611Z,101264.16
2023-05-10T12:50:45.121Z,101266.00
2023-05-10T12:53:11.882Z,101264.25
2023-05-10T12:55:38.397Z,101262.66
2023-05-10T12:58:04.905Z,101275.63
2023-05-10T13:00:31.467Z,101272.66
2023-05-10T13:02:57.947Z,101269.00
2023-05-10T13:05:24.427Z,101277.00
2023-05-10T13:07:50.996Z,101285.31
2023-05-10T13:10:18.004Z,101287.59
2023-05-10T13:12:44.764Z,101269.00
2023-05-10T13:15:11.520Z,101286.34
2023-05-10T13:17:39.946Z,101267.56
2023-05-10T13:20:07.287Z,101272.41
2023-05-10T13:22:40.103Z,101258.13
2023-05-10T13:25:07.357Z,101257.13
2023-05-10T13:27:33.873Z,101254.56
2023-05-10T13:30:00.404Z,101248.03
2023-05-10T13:32:27.333Z,101263.63
2023-05-10T13:34:53.802Z,101267.13
2023-05-10T13:37:20.508Z,101264.16
2023-05-10T13:39:46.974Z,101253.69
2023-05-10T13:42:13.472Z,101257.25
2023-05-10T13:44:40.014Z,101251.25
2023-05-10T13:47:07.115Z,101247.66
2023-05-10T13:49:34.932Z,101248.28
2023-05-10T13:52:07.889Z,101247.63
2023-05-10T13:54:40.260Z,101238.69
2023-05-10T13:57:07.569Z,101248.59
2023-05-10T13:59:34.175Z,101247.72
2023-05-10T14:02:03.535Z,101246.44
2023-05-10T14:04:30.650Z,101255.56
2023-05-10T14:06:57.420Z,101265.19
2023-05-10T14:09:24.002Z,101279.88
2023-05-10T14:11:50.497Z,101276.81
2023-05-10T14:14:17.119Z,101273.25
2023-05-10T14:16:45.318Z,101269.69
2023-05-10T14:19:12.417Z,101265.69
2023-05-10T14:21:39.094Z,101263.41
2023-05-10T14:24:05.928Z,101246.28
2023-05-10T14:26:32.541Z,101249.78
2023-05-10T14:28:59.913Z,101248.91
2023-05-10T14:31:26.619Z,101244.38
2023-05-10T14:33:54.062Z,101242.88
2023-05-10T14:36:20.562Z,101237.38
2023-05-10T14:38:47.105Z,101232.94
2023-05-10T14:41:18.330Z,101214.91
2023-05-10T14:43:45.093Z,101219.19
2023-05-10T14:46:11.628Z,101218.38
2023-05-10T14:48:38.220Z,101211.69
2023-05-10T14:51:04.945Z,101205.19
2023-05-10T14:53:31.718Z,101201.03
2023-05-10T14:55:58.429Z,101200.78
2023-05-10T14:58:24.969Z,101207.03
2023-05-10T15:00:52.017Z,101203.69
2023-05-10T15:03:19.152Z,101191.56
2023-05-10T15:05:46.143Z,101193.00
2023-05-10T15:08:13.517Z,101197.94
2023-05-10T15:10:40.829Z,101198.66
2023-05-10T15:13:07.333Z,101188.66
2023-05-10T15:15:33.895Z,101191.06
2023-05-10T15:18:00.480Z,101188.66
2023-05-10T15:20:27.011Z,101186.28
2023-05-10T15:22:53.518Z,101184.47
2023-05-10T15:25:21.007Z,101189.47
2023-05-10T15:27:47.690Z,101193.09
2023-05-10T15:30:17.432Z,101202.59
2023-05-10T15:32:44.086Z,101218.91
2023-05-10T15:35:11.371Z,101217.97
2023-05-10T15:37:38.638Z,101225.09
2023-05-10T15:40:05.814Z,101226.81
2023-05-10T15:42:35.218Z,101233.88
2023-05-10T15:45:01.741Z,101238.47
2023-05-10T15:47:31.262Z,101240.59
2023-05-10T15:49:57.944Z,101247.84
2023-05-10T15:52:24.493Z,101243.44
2023-05-10T15:54:51.739Z,101256.81
2023-05-10T15:57:18.405Z,101241.56
2023-05-10T15:59:45.799Z,101240.50
2023-05-10T16:02:12.616Z,101253.19
2023-05-10T16:04:41.517Z,101258.13
2023-05-10T16:07:08.010Z,101275.19
2023-05-10T16:09:34.527Z,101275.66
2023-05-10T16:12:02.072Z,101271.19
2023-05-10T16:14:28.774Z,101273.34
2023-05-10T16:16:55.360Z,101279.56
2023-05-10T16:19:22.443Z,101280.59
2023-05-10T16:21:49.045Z,101274.38
2023-05-10T16:24:15.765Z,101271.75
2023-05-10T16:26:42.268Z,101273.25
2023-05-10T16:29:09.088Z,101266.50
2023-05-10T16:31:35.838Z,101262.63
2023-05-10T16:34:02.455Z,101266.50
2023-05-10T16:36:29.569Z,101253.38
2023-05-10T16:38:56.574Z,101255.06
2023-05-10T16:41:23.190Z,101257.38
2023-05-10T16:43:50.146Z,101258.53
2023-05-10T16:46:16.762Z,101271.81
2023-05-10T16:48:43.356Z,101279.13
2023-05-10T16:51:09.905Z,101281.06
2023-05-10T16:53:36.536Z,101289.00
2023-05-10T16:56:03.818Z,101289.44
2023-05-10T16:58:30.350Z,101283.97
2023-05-10T17:00:56.884Z,101282.13
2023-05-10T17:03:23.646Z,101265.13
2023-05-10T17:05:50.545Z,101279.28
2023-05-10T17:08:17.164Z,101277.50
2023-05-10T17:10:43.738Z,101270.25
2023-05-10T17:13:10.867Z,101275.53
2023-05-10T17:15:38.604Z,101272.78
2023-05-10T17:18:06.426Z,101266.91
2023-05-10T17:20:32.916Z,101274.38
2023-05-10T17:22:59.489Z,101276.28
2023-05-10T17:25:26.115Z,101287.69
2023-05-10T17:27:52.591Z,101274.75
2023-05-10T17:30:25.987Z,101278.16
2023-05-10T17:32:54.147Z,101287.75
2023-05-10T17:35:21.402Z,101276.44
2023-05-10T17:37:48.063Z,101266.00
2023-05-10T17:40:14.681Z,101265.94
2023-05-10T17:42:41.816Z,101263.41
2023-05-10T17:45:09.024Z,101269.56
2023-05-10T17:47:35.752Z,101269.81
2023-05-10T17:50:02.340Z,101270.50
2023-05-10T17:52:31.365Z,101280.09
2023-05-10T17:54:59.751Z,101280.91
2023-05-10T17:57:26.591Z,101278.44
2023-05-10T17:59:53.165Z,101268.16
2023-05-10T18:02:19.657Z,101263.91
2023-05-10T18:04:46.526Z,101263.06
2023-05-10T18:07:13.236Z,101270.91
2023-05-10T18:09:39.953Z,101273.56
2023-05-10T18:12:06.689Z,101265.31
2023-05-10T18:14:40.524Z,101269.72
2023-05-10T18:17:08.076Z,101270.69
2023-05-10T18:19:34.830Z,101269.06
2023-05-10T18:22:01.351Z,101278.94
2023-05-10T18:24:38.407Z,101280.78
2023-05-10T18:27:08.740Z,101280.44
2023-05-10T18:29:36.280Z,101290.16
2023-05-10T18:32:02.896Z,101291.88
2023-05-10T18:34:29.794Z,101279.88
2023-05-10T18:36:56.522Z,101284.06
2023-05-10T18:39:23.554Z,101285.53
2023-05-10T18:41:50.234Z,101280.41
2023-05-10T18:44:16.765Z,101292.44
2023-05-10T18:46:43.504Z,101290.84
2023-05-10T18:49:10.108Z,101292.69
2023-05-10T18:51:36.768Z,101291.59
2023-05-10T18:54:03.538Z,101299.06
2023-05-10T18:56:30.407Z,101306.56
2023-05-10T18:58:57.064Z,101299.88
2023-05-10T19:01:23.578Z,101294.78
2023-05-10T19:03:50.063Z,101305.16
2023-05-10T19:06:16.588Z,101288.97
2023-05-10T19:08:43.051Z,101314.09
2023-05-10T19:11:09.729Z,101301.41
2023-05-10T19:13:36.304Z,101306.53
2023-05-10T19:16:05.785Z,101319.66
2023-05-10T19:18:32.632Z,101320.78
2023-05-10T19:21:02.124Z,101320.06
2023-05-10T19:23:30.228Z,101312.69
2023-05-10T19:25:56.919Z,101332.09
2023-05-10T19:28:23.458Z,101323.69
2023-05-10T19:30:50.358Z,101319.84
2023-05-10T19:33:20.015Z,101316.63
2023-05-10T19:35:46.708Z,101328.25
2023-05-10T19:38:13.226Z,101319.59
2023-05-10T19:40:39.715Z,101325.81
2023-05-10T19:43:06.334Z,101329.59
2023-05-10T19:45:34.898Z,101312.97
2023-05-10T19:48:02.190Z,101326.81
2023-05-10T19:50:28.938Z,101320.88
2023-05-10T19:52:55.532Z,101330.59
2023-05-10T19:55:27.840Z,101333.59
2023-05-10T19:57:54.472Z,101349.41
2023-05-10T20:00:21.337Z,101347.91
2023-05-10T20:02:47.857Z,101353.25
2023-05-10T20:05:14.663Z,101350.03
2023-05-10T20:07:41.227Z,101348.41
2023-05-10T20:10:08.165Z,101376.25
2023-05-10T20:12:34.648Z,101364.13
2023-05-10T20:15:01.327Z,101365.97
2023-05-10T20:17:28.012Z,101369.56
2023-05-10T20:19:54.601Z,101367.94
2023-05-10T20:22:21.147Z,101356.09
2023-05-10T20:24:48.144Z,101367.53
2023-05-10T20:27:14.630Z,101371.00
2023-05-10T20:29:41.572Z,101377.28
2023-05-10T20:32:08.093Z,101372.22
2023-05-10T20:34:35.153Z,101385.31
2023-05-10T20:37:01.984Z,101377.59
2023-05-10T20:39:29.479Z,101378.63
2023-05-10T20:41:55.963Z,101371.00
2023-05-10T20:44:22.458Z,101381.38
2023-05-10T20:46:49.068Z,101377.25
2023-05-10T20:49:15.570Z,101383.59
2023-05-10T20:51:42.044Z,101375.06
2023-05-10T20:54:08.621Z,101395.88
2023-05-10T20:56:35.116Z,101393.44
2023-05-10T20:59:01.642Z,101397.88
2023-05-10T21:01:28.182Z,101396.28
2023-05-10T21:03:54.670Z,101402.44
2023-05-10T21:06:21.104Z,101393.00
2023-05-10T21:08:47.870Z,101386.19
2023-05-10T21:11:14.479Z,101399.19
2023-05-10T21:13:41.096Z,101386.31
2023-05-10T21:16:07.585Z,101388.09
2023-05-10T21:18:34.176Z,101408.03
2023-05-10T21:21:00.759Z,101386.50
2023-05-10T21:23:27.553Z,101398.66
2023-05-10T21:25:54.104Z,101398.69
2023-05-10T21:28:20.635Z,101392.81
2023-05-10T21:30:48.004Z,101369.56
2023-05-10T21:33:14.584Z,101393.03
2023-05-10T21:35:42.925Z,101392.16
2023-05-10T21:38:11.866Z,101385.44
2023-05-10T21:40:39.744Z,101401.81
2023-05-10T21:43:06.284Z,101401.09
2023-05-10T21:45:33.188Z,101399.34
2023-05-10T21:48:00.318Z,101409.72
2023-05-10T21:50:27.435Z,101411.47
2023-05-10T21:52:54.613Z,101411.50
2023-05-10T21:55:21.261Z,101418.47
2023-05-10T21:57:47.943Z,101415.91
2023-05-10T22:00:16.295Z,101415.97
2023-05-10T22:02:43.151Z,101397.72
2023-05-10T22:05:09.934Z,101415.94
2023-05-10T22:07:36.722Z,101416.75
2023-05-10T22:10:03.613Z,101407.22
2023-05-10T22:12:30.134Z,101404.66
2023-05-10T22:15:09.380Z,101401.22
2023-05-10T22:17:38.384Z,101402.88
2023-05-10T22:20:09.276Z,101408.16
2023-05-10T22:22:36.694Z,101397.84
2023-05-10T22:25:04.031Z,101411.69
2023-05-10T22:27:30.571Z,101401.41
2023-05-10T22:29:57.086Z,101408.28
2023-05-10T22:32:23.589Z,101410.88
2023-05-10T22:34:50.083Z,101397.94
2023-05-10T22:37:17.960Z,101411.69
2023-05-10T22:39:48.766Z,101412.59
2023-05-10T22:42:15.895Z,101419.53
2023-05-10T22:44:43.116Z,101414.34
2023-05-10T22:47:09.765Z,101422.09
2023-05-10T22:49:37.643Z,101418.69
2023-05-10T22:52:04.301Z,101415.09
2023-05-10T22:54:30.800Z,101416.00
2023-05-10T22:56:57.386Z,101417.69
2023-05-10T22:59:23.914Z,101403.03
2023-05-10T23:01:50.714Z,101408.22
2023-05-10T23:04:17.291Z,101407.28
2023-05-10T23:06:43.862Z,101413.38
2023-05-10T23:09:10.317Z,101416.88
2023-05-10T23:11:36.898Z,101413.38
2023-05-10T23:14:03.766Z,101409.13
2023-05-10T23:16:30.583Z,101418.69
2023-05-10T23:18:57.337Z,101425.66
2023-05-10T23:21:25.250Z,101420.44
2023-05-10T23:23:52.489Z,101421.38
2023-05-10T23:26:19.084Z,101416.16
2023-05-10T23:28:45.572Z,101425.72
2023-05-10T23:31:12.028Z,101417.13
2023-05-10T23:33:38.637Z,101423.09
2023-05-10T23:36:05.676Z,101427.44
2023-05-10T23:38:32.897Z,101421.34
2023-05-10T23:40:59.383Z,101427.50
2023-05-10T23:43:25.942Z,101403.34
2023-05-10T23:45:57.369Z,101423.09
2023-05-10T23:48:24.207Z,101418.78
2023-05-10T23:50:50.843Z,101413.66
2023-05-10T23:53:17.379Z,101417.97
2023-05-10T23:55:44.028Z,101417.16
2023-05-10T23:58:10.702Z,101421.44
